sensor_id;sensor_type;location;lat;lon;timestamp;P1;durP1;ratioP1;P2;durP2;ratioP2
64487;SDS011;50864;45.050;39.014;2022-08-25T00:00:45;124.38;;;53.78;;
64487;SDS011;50864;45.050;39.014;2022-08-25T00:03:11;290.95;;;87.65;;
64487;SDS011;50864;45.050;39.014;2022-08-25T00:05:38;296.95;;;89.22;;
64487;SDS011;50864;45.050;39.014;2022-08-25T00:08:04;263.80;;;82.22;;
64487;SDS011;50864;45.050;39.014;2022-08-25T00:10:32;229.77;;;75.53;;
64487;SDS011;50864;45.050;39.014;2022-08-25T00:12:59;256.92;;;80.80;;
64487;SDS011;50864;45.050;39.014;2022-08-25T00:15:25;256.35;;;79.05;;
64487;SDS011;50864;45.050;39.014;2022-08-25T00:17:51;257.05;;;80.93;;
64487;SDS011;50864;45.050;39.014;2022-08-25T00:20:17;117.78;;;52.70;;
64487;SDS011;50864;45.050;39.014;2022-08-25T00:22:43;101.30;;;47.08;;
64487;SDS011;50864;45.050;39.014;2022-08-25T00:25:10;122.57;;;51.88;;
64487;SDS011;50864;45.050;39.014;2022-08-25T00:27:37;119.95;;;50.67;;
64487;SDS011;50864;45.050;39.014;2022-08-25T00:30:03;198.75;;;68.70;;
64487;SDS011;50864;45.050;39.014;2022-08-25T00:32:29;372.30;;;103.82;;
64487;SDS011;50864;45.050;39.014;2022-08-25T00:34:55;307.67;;;90.32;;
64487;SDS011;50864;45.050;39.014;2022-08-25T00:37:21;304.15;;;90.32;;
64487;SDS011;50864;45.050;39.014;2022-08-25T00:39:47;297.92;;;88.57;;
64487;SDS011;50864;45.050;39.014;2022-08-25T00:42:13;313.17;;;93.15;;
64487;SDS011;50864;45.050;39.014;2022-08-25T00:44:39;353.62;;;101.78;;
64487;SDS011;50864;45.050;39.014;2022-08-25T00:47:06;346.42;;;99.85;;
64487;SDS011;50864;45.050;39.014;2022-08-25T00:49:47;397.52;;;110.07;;
64487;SDS011;50864;45.050;39.014;2022-08-25T00:54:48;345.40;;;98.87;;
64487;SDS011;50864;45.050;39.014;2022-08-25T00:57:16;285.63;;;87.10;;
64487;SDS011;50864;45.050;39.014;2022-08-25T00:59:42;234.52;;;77.25;;
64487;SDS011;50864;45.050;39.014;2022-08-25T01:02:09;315.42;;;93.53;;
64487;SDS011;50864;45.050;39.014;2022-08-25T01:04:35;249.25;;;81.18;;
64487;SDS011;50864;45.050;39.014;2022-08-25T01:07:02;279.27;;;85.62;;
64487;SDS011;50864;45.050;39.014;2022-08-25T01:09:29;357.67;;;102.50;;
64487;SDS011;50864;45.050;39.014;2022-08-25T01:11:57;340.95;;;97.82;;
64487;SDS011;50864;45.050;39.014;2022-08-25T01:14:23;339.23;;;98.90;;
64487;SDS011;50864;45.050;39.014;2022-08-25T01:16:50;272.12;;;86.10;;
64487;SDS011;50864;45.050;39.014;2022-08-25T01:19:17;327.30;;;95.87;;
64487;SDS011;50864;45.050;39.014;2022-08-25T01:21:45;293.70;;;88.82;;
64487;SDS011;50864;45.050;39.014;2022-08-25T01:24:13;354.30;;;102.05;;
64487;SDS011;50864;45.050;39.014;2022-08-25T01:26:40;287.15;;;88.03;;
64487;SDS011;50864;45.050;39.014;2022-08-25T01:29:08;343.25;;;99.47;;
64487;SDS011;50864;45.050;39.014;2022-08-25T01:31:51;362.12;;;102.95;;
64487;SDS011;50864;45.050;39.014;2022-08-25T01:34:18;324.50;;;94.68;;
64487;SDS011;50864;45.050;39.014;2022-08-25T01:36:44;422.63;;;115.70;;
64487;SDS011;50864;45.050;39.014;2022-08-25T01:39:10;331.25;;;97.68;;
64487;SDS011;50864;45.050;39.014;2022-08-25T01:44:39;359.40;;;102.50;;
64487;SDS011;50864;45.050;39.014;2022-08-25T01:47:06;350.50;;;100.60;;
64487;SDS011;50864;45.050;39.014;2022-08-25T01:49:32;358.70;;;103.95;;
64487;SDS011;50864;45.050;39.014;2022-08-25T01:52:06;145.52;;;58.75;;
64487;SDS011;50864;45.050;39.014;2022-08-25T01:54:34;137.68;;;57.78;;
64487;SDS011;50864;45.050;39.014;2022-08-25T01:57:01;145.98;;;58.22;;
64487;SDS011;50864;45.050;39.014;2022-08-25T01:59:26;151.12;;;60.45;;
64487;SDS011;50864;45.050;39.014;2022-08-25T02:01:52;129.63;;;55.88;;
64487;SDS011;50864;45.050;39.014;2022-08-25T02:04:19;156.75;;;62.00;;
64487;SDS011;50864;45.050;39.014;2022-08-25T02:06:44;307.33;;;92.28;;
64487;SDS011;50864;45.050;39.014;2022-08-25T02:09:13;407.38;;;112.15;;
64487;SDS011;50864;45.050;39.014;2022-08-25T02:11:41;348.90;;;100.72;;
64487;SDS011;50864;45.050;39.014;2022-08-25T02:14:07;366.80;;;103.78;;
64487;SDS011;50864;45.050;39.014;2022-08-25T02:16:34;401.15;;;110.37;;
64487;SDS011;50864;45.050;39.014;2022-08-25T02:19:02;287.90;;;87.93;;
64487;SDS011;50864;45.050;39.014;2022-08-25T02:21:28;243.40;;;78.90;;
64487;SDS011;50864;45.050;39.014;2022-08-25T02:23:54;262.52;;;83.07;;
64487;SDS011;50864;45.050;39.014;2022-08-25T02:26:21;311.23;;;94.72;;
64487;SDS011;50864;45.050;39.014;2022-08-25T02:28:48;261.58;;;84.20;;
64487;SDS011;50864;45.050;39.014;2022-08-25T02:31:15;265.58;;;83.93;;
64487;SDS011;50864;45.050;39.014;2022-08-25T02:33:41;241.77;;;80.72;;
64487;SDS011;50864;45.050;39.014;2022-08-25T02:36:07;270.10;;;85.40;;
64487;SDS011;50864;45.050;39.014;2022-08-25T02:38:33;229.15;;;78.30;;
64487;SDS011;50864;45.050;39.014;2022-08-25T02:41:00;241.65;;;79.82;;
64487;SDS011;50864;45.050;39.014;2022-08-25T02:43:26;291.83;;;88.50;;
64487;SDS011;50864;45.050;39.014;2022-08-25T02:45:52;294.27;;;90.72;;
64487;SDS011;50864;45.050;39.014;2022-08-25T02:48:20;306.58;;;93.22;;
64487;SDS011;50864;45.050;39.014;2022-08-25T02:50:46;407.00;;;112.35;;
64487;SDS011;50864;45.050;39.014;2022-08-25T02:53:12;330.42;;;96.87;;
64487;SDS011;50864;45.050;39.014;2022-08-25T02:55:44;298.58;;;91.32;;
64487;SDS011;50864;45.050;39.014;2022-08-25T02:58:12;315.85;;;94.80;;
64487;SDS011;50864;45.050;39.014;2022-08-25T03:00:38;349.42;;;102.12;;
64487;SDS011;50864;45.050;39.014;2022-08-25T03:03:04;375.62;;;106.05;;
64487;SDS011;50864;45.050;39.014;2022-08-25T03:05:30;470.00;;;125.45;;
64487;SDS011;50864;45.050;39.014;2022-08-25T03:07:56;423.00;;;115.95;;
64487;SDS011;50864;45.050;39.014;2022-08-25T03:10:28;496.37;;;134.77;;
64487;SDS011;50864;45.050;39.014;2022-08-25T03:12:54;273.00;;;87.20;;
64487;SDS011;50864;45.050;39.014;2022-08-25T03:15:23;257.25;;;83.80;;
64487;SDS011;50864;45.050;39.014;2022-08-25T03:17:53;430.63;;;116.15;;
64487;SDS011;50864;45.050;39.014;2022-08-25T03:20:23;424.35;;;115.80;;
64487;SDS011;50864;45.050;39.014;2022-08-25T03:22:49;385.70;;;106.80;;
64487;SDS011;50864;45.050;39.014;2022-08-25T03:25:15;462.20;;;123.32;;
64487;SDS011;50864;45.050;39.014;2022-08-25T03:28:00;432.67;;;116.60;;
64487;SDS011;50864;45.050;39.014;2022-08-25T03:30:26;444.23;;;119.70;;
64487;SDS011;50864;45.050;39.014;2022-08-25T03:32:52;434.52;;;119.50;;
64487;SDS011;50864;45.050;39.014;2022-08-25T03:35:18;448.27;;;122.35;;
64487;SDS011;50864;45.050;39.014;2022-08-25T03:37:44;431.60;;;117.93;;
64487;SDS011;50864;45.050;39.014;2022-08-25T03:40:13;497.17;;;133.45;;
64487;SDS011;50864;45.050;39.014;2022-08-25T03:42:40;432.75;;;118.15;;
64487;SDS011;50864;45.050;39.014;2022-08-25T03:45:07;444.45;;;120.97;;
64487;SDS011;50864;45.050;39.014;2022-08-25T03:47:33;451.63;;;122.28;;
64487;SDS011;50864;45.050;39.014;2022-08-25T03:49:59;464.08;;;126.57;;
64487;SDS011;50864;45.050;39.014;2022-08-25T03:52:25;263.02;;;84.18;;
64487;SDS011;50864;45.050;39.014;2022-08-25T03:54:51;239.20;;;79.47;;
64487;SDS011;50864;45.050;39.014;2022-08-25T03:57:16;280.23;;;85.82;;
64487;SDS011;50864;45.050;39.014;2022-08-25T03:59:45;332.83;;;97.68;;
64487;SDS011;50864;45.050;39.014;2022-08-25T04:02:11;392.67;;;109.82;;
64487;SDS011;50864;45.050;39.014;2022-08-25T04:04:37;372.25;;;105.55;;
64487;SDS011;50864;45.050;39.014;2022-08-25T04:07:03;345.60;;;100.65;;
64487;SDS011;50864;45.050;39.014;2022-08-25T04:09:29;285.45;;;88.40;;
64487;SDS011;50864;45.050;39.014;2022-08-25T04:11:55;473.77;;;127.43;;
64487;SDS011;50864;45.050;39.014;2022-08-25T04:14:21;439.13;;;119.03;;
64487;SDS011;50864;45.050;39.014;2022-08-25T04:16:48;307.40;;;91.20;;
64487;SDS011;50864;45.050;39.014;2022-08-25T04:19:14;305.08;;;91.85;;
64487;SDS011;50864;45.050;39.014;2022-08-25T04:21:40;265.10;;;84.20;;
64487;SDS011;50864;45.050;39.014;2022-08-25T04:24:07;255.57;;;84.03;;
64487;SDS011;50864;45.050;39.014;2022-08-25T04:26:35;287.55;;;89.62;;
64487;SDS011;50864;45.050;39.014;2022-08-25T04:29:02;288.83;;;89.55;;
64487;SDS011;50864;45.050;39.014;2022-08-25T04:31:28;251.00;;;81.22;;
64487;SDS011;50864;45.050;39.014;2022-08-25T04:33:55;251.23;;;80.93;;
64487;SDS011;50864;45.050;39.014;2022-08-25T04:36:21;259.52;;;83.12;;
64487;SDS011;50864;45.050;39.014;2022-08-25T04:38:48;309.87;;;92.97;;
64487;SDS011;50864;45.050;39.014;2022-08-25T04:41:15;282.90;;;88.40;;
64487;SDS011;50864;45.050;39.014;2022-08-25T04:43:41;254.73;;;81.97;;
64487;SDS011;50864;45.050;39.014;2022-08-25T04:46:13;269.08;;;86.18;;
64487;SDS011;50864;45.050;39.014;2022-08-25T04:48:42;322.60;;;93.65;;
64487;SDS011;50864;45.050;39.014;2022-08-25T04:51:09;389.77;;;108.12;;
64487;SDS011;50864;45.050;39.014;2022-08-25T04:53:36;386.30;;;107.37;;
64487;SDS011;50864;45.050;39.014;2022-08-25T04:56:04;271.42;;;83.20;;
64487;SDS011;50864;45.050;39.014;2022-08-25T04:58:30;336.12;;;95.53;;
64487;SDS011;50864;45.050;39.014;2022-08-25T05:01:06;203.45;;;67.15;;
64487;SDS011;50864;45.050;39.014;2022-08-25T05:03:33;241.52;;;75.95;;
64487;SDS011;50864;45.050;39.014;2022-08-25T05:05:59;223.32;;;69.35;;
64487;SDS011;50864;45.050;39.014;2022-08-25T05:08:25;196.25;;;67.87;;
64487;SDS011;50864;45.050;39.014;2022-08-25T05:10:52;230.87;;;72.43;;
64487;SDS011;50864;45.050;39.014;2022-08-25T05:13:21;241.43;;;76.22;;
64487;SDS011;50864;45.050;39.014;2022-08-25T05:15:51;248.00;;;77.20;;
64487;SDS011;50864;45.050;39.014;2022-08-25T05:18:18;197.73;;;67.82;;
64487;SDS011;50864;45.050;39.014;2022-08-25T05:20:44;203.60;;;69.62;;
64487;SDS011;50864;45.050;39.014;2022-08-25T05:23:10;200.82;;;67.65;;
64487;SDS011;50864;45.050;39.014;2022-08-25T05:25:37;217.60;;;72.40;;
64487;SDS011;50864;45.050;39.014;2022-08-25T05:28:03;255.18;;;79.35;;
64487;SDS011;50864;45.050;39.014;2022-08-25T05:30:29;242.20;;;76.57;;
64487;SDS011;50864;45.050;39.014;2022-08-25T05:32:55;268.75;;;82.32;;
64487;SDS011;50864;45.050;39.014;2022-08-25T05:35:21;244.90;;;76.80;;
64487;SDS011;50864;45.050;39.014;2022-08-25T05:37:47;225.43;;;73.37;;
64487;SDS011;50864;45.050;39.014;2022-08-25T05:40:13;206.95;;;71.00;;
64487;SDS011;50864;45.050;39.014;2022-08-25T05:42:39;241.35;;;77.32;;
64487;SDS011;50864;45.050;39.014;2022-08-25T05:45:05;222.18;;;72.68;;
64487;SDS011;50864;45.050;39.014;2022-08-25T05:47:32;235.75;;;76.47;;
64487;SDS011;50864;45.050;39.014;2022-08-25T05:49:58;235.40;;;72.78;;
64487;SDS011;50864;45.050;39.014;2022-08-25T05:52:25;262.83;;;81.15;;
64487;SDS011;50864;45.050;39.014;2022-08-25T05:54:51;227.65;;;73.43;;
64487;SDS011;50864;45.050;39.014;2022-08-25T05:57:17;253.43;;;78.10;;
64487;SDS011;50864;45.050;39.014;2022-08-25T05:59:43;220.52;;;70.72;;
64487;SDS011;50864;45.050;39.014;2022-08-25T06:02:09;233.27;;;75.22;;
64487;SDS011;50864;45.050;39.014;2022-08-25T06:04:54;245.75;;;75.68;;
64487;SDS011;50864;45.050;39.014;2022-08-25T06:07:20;232.25;;;72.03;;
64487;SDS011;50864;45.050;39.014;2022-08-25T06:09:45;214.68;;;70.35;;
64487;SDS011;50864;45.050;39.014;2022-08-25T06:12:14;224.43;;;71.85;;
64487;SDS011;50864;45.050;39.014;2022-08-25T06:14:39;214.00;;;69.47;;
64487;SDS011;50864;45.050;39.014;2022-08-25T06:17:06;218.23;;;68.93;;
64487;SDS011;50864;45.050;39.014;2022-08-25T06:19:32;195.45;;;66.10;;
64487;SDS011;50864;45.050;39.014;2022-08-25T06:21:58;198.68;;;67.07;;
64487;SDS011;50864;45.050;39.014;2022-08-25T06:24:24;225.62;;;68.12;;
64487;SDS011;50864;45.050;39.014;2022-08-25T06:26:51;228.02;;;70.85;;
64487;SDS011;50864;45.050;39.014;2022-08-25T06:29:17;296.65;;;84.43;;
64487;SDS011;50864;45.050;39.014;2022-08-25T06:31:44;194.62;;;67.03;;
64487;SDS011;50864;45.050;39.014;2022-08-25T06:34:11;255.80;;;77.12;;
64487;SDS011;50864;45.050;39.014;2022-08-25T06:36:37;209.05;;;69.07;;
64487;SDS011;50864;45.050;39.014;2022-08-25T06:39:03;164.48;;;58.53;;
64487;SDS011;50864;45.050;39.014;2022-08-25T06:41:30;193.70;;;64.75;;
64487;SDS011;50864;45.050;39.014;2022-08-25T06:43:57;175.55;;;61.88;;
64487;SDS011;50864;45.050;39.014;2022-08-25T06:46:23;178.50;;;64.45;;
64487;SDS011;50864;45.050;39.014;2022-08-25T06:48:51;171.60;;;61.58;;
64487;SDS011;50864;45.050;39.014;2022-08-25T06:51:17;177.07;;;60.55;;
64487;SDS011;50864;45.050;39.014;2022-08-25T06:53:44;157.62;;;54.28;;
64487;SDS011;50864;45.050;39.014;2022-08-25T06:56:11;160.98;;;53.25;;
64487;SDS011;50864;45.050;39.014;2022-08-25T06:58:37;157.15;;;54.33;;
64487;SDS011;50864;45.050;39.014;2022-08-25T07:01:07;153.18;;;55.50;;
64487;SDS011;50864;45.050;39.014;2022-08-25T07:03:33;169.45;;;56.97;;
64487;SDS011;50864;45.050;39.014;2022-08-25T07:05:59;135.55;;;48.42;;
64487;SDS011;50864;45.050;39.014;2022-08-25T07:08:25;175.50;;;55.97;;
64487;SDS011;50864;45.050;39.014;2022-08-25T07:10:51;191.98;;;61.72;;
64487;SDS011;50864;45.050;39.014;2022-08-25T07:13:17;139.65;;;48.45;;
64487;SDS011;50864;45.050;39.014;2022-08-25T07:15:43;97.50;;;38.47;;
64487;SDS011;50864;45.050;39.014;2022-08-25T07:18:09;114.18;;;47.08;;
64487;SDS011;50864;45.050;39.014;2022-08-25T07:20:36;99.60;;;41.53;;
64487;SDS011;50864;45.050;39.014;2022-08-25T07:23:02;119.85;;;44.05;;
64487;SDS011;50864;45.050;39.014;2022-08-25T07:25:28;142.95;;;53.33;;
64487;SDS011;50864;45.050;39.014;2022-08-25T07:27:54;132.40;;;46.40;;
64487;SDS011;50864;45.050;39.014;2022-08-25T07:30:20;129.55;;;48.05;;
64487;SDS011;50864;45.050;39.014;2022-08-25T07:32:46;90.22;;;37.55;;
64487;SDS011;50864;45.050;39.014;2022-08-25T07:35:13;137.77;;;51.53;;
64487;SDS011;50864;45.050;39.014;2022-08-25T07:37:44;98.28;;;38.33;;
64487;SDS011;50864;45.050;39.014;2022-08-25T07:40:12;90.87;;;37.15;;
64487;SDS011;50864;45.050;39.014;2022-08-25T07:42:39;83.00;;;35.42;;
64487;SDS011;50864;45.050;39.014;2022-08-25T07:45:06;121.57;;;46.88;;
64487;SDS011;50864;45.050;39.014;2022-08-25T07:47:33;125.07;;;47.20;;
64487;SDS011;50864;45.050;39.014;2022-08-25T07:49:59;84.60;;;32.60;;
64487;SDS011;50864;45.050;39.014;2022-08-25T07:52:24;72.55;;;32.42;;
64487;SDS011;50864;45.050;39.014;2022-08-25T07:54:51;76.95;;;35.03;;
64487;SDS011;50864;45.050;39.014;2022-08-25T07:57:18;65.22;;;33.05;;
64487;SDS011;50864;45.050;39.014;2022-08-25T07:59:46;73.03;;;34.85;;
64487;SDS011;50864;45.050;39.014;2022-08-25T08:02:12;76.05;;;34.00;;
64487;SDS011;50864;45.050;39.014;2022-08-25T08:04:39;120.53;;;44.38;;
64487;SDS011;50864;45.050;39.014;2022-08-25T08:07:06;108.65;;;40.28;;
64487;SDS011;50864;45.050;39.014;2022-08-25T08:09:32;103.97;;;44.10;;
64487;SDS011;50864;45.050;39.014;2022-08-25T08:11:58;80.25;;;34.85;;
64487;SDS011;50864;45.050;39.014;2022-08-25T08:14:24;122.53;;;42.55;;
64487;SDS011;50864;45.050;39.014;2022-08-25T08:16:50;79.62;;;38.90;;
64487;SDS011;50864;45.050;39.014;2022-08-25T08:19:16;108.53;;;41.17;;
64487;SDS011;50864;45.050;39.014;2022-08-25T08:21:42;130.93;;;46.72;;
64487;SDS011;50864;45.050;39.014;2022-08-25T08:24:08;114.20;;;42.17;;
64487;SDS011;50864;45.050;39.014;2022-08-25T08:26:34;91.75;;;38.60;;
64487;SDS011;50864;45.050;39.014;2022-08-25T08:29:00;98.65;;;41.97;;
64487;SDS011;50864;45.050;39.014;2022-08-25T08:31:26;88.87;;;35.60;;
64487;SDS011;50864;45.050;39.014;2022-08-25T08:33:54;103.10;;;38.05;;
64487;SDS011;50864;45.050;39.014;2022-08-25T08:36:20;143.80;;;49.15;;
64487;SDS011;50864;45.050;39.014;2022-08-25T08:38:46;163.90;;;53.55;;
64487;SDS011;50864;45.050;39.014;2022-08-25T08:46:39;192.85;;;61.53;;
64487;SDS011;50864;45.050;39.014;2022-08-25T08:49:10;172.43;;;53.30;;
64487;SDS011;50864;45.050;39.014;2022-08-25T08:51:44;232.43;;;66.18;;
64487;SDS011;50864;45.050;39.014;2022-08-25T08:54:13;207.48;;;60.38;;
64487;SDS011;50864;45.050;39.014;2022-08-25T08:56:44;202.95;;;63.53;;
64487;SDS011;50864;45.050;39.014;2022-08-25T08:59:18;219.50;;;66.82;;
64487;SDS011;50864;45.050;39.014;2022-08-25T09:01:47;222.20;;;62.20;;
64487;SDS011;50864;45.050;39.014;2022-08-25T09:04:17;168.45;;;53.58;;
64487;SDS011;50864;45.050;39.014;2022-08-25T09:06:45;151.37;;;51.47;;
64487;SDS011;50864;45.050;39.014;2022-08-25T09:09:14;189.57;;;59.95;;
64487;SDS011;50864;45.050;39.014;2022-08-25T09:17:01;165.73;;;52.22;;
64487;SDS011;50864;45.050;39.014;2022-08-25T09:24:54;142.90;;;48.25;;
64487;SDS011;50864;45.050;39.014;2022-08-25T09:30:08;181.25;;;55.78;;
64487;SDS011;50864;45.050;39.014;2022-08-25T09:32:39;166.93;;;54.50;;
64487;SDS011;50864;45.050;39.014;2022-08-25T09:35:14;191.93;;;56.80;;
64487;SDS011;50864;45.050;39.014;2022-08-25T09:37:41;158.30;;;52.92;;
64487;SDS011;50864;45.050;39.014;2022-08-25T09:40:07;148.15;;;53.13;;
64487;SDS011;50864;45.050;39.014;2022-08-25T09:42:50;186.80;;;57.78;;
64487;SDS011;50864;45.050;39.014;2022-08-25T09:45:29;225.50;;;66.75;;
64487;SDS011;50864;45.050;39.014;2022-08-25T09:47:56;208.00;;;61.75;;
64487;SDS011;50864;45.050;39.014;2022-08-25T09:50:22;157.27;;;51.97;;
64487;SDS011;50864;45.050;39.014;2022-08-25T09:52:48;187.57;;;56.67;;
64487;SDS011;50864;45.050;39.014;2022-08-25T09:57:45;104.50;;;40.12;;
64487;SDS011;50864;45.050;39.014;2022-08-25T10:03:01;111.18;;;39.30;;
64487;SDS011;50864;45.050;39.014;2022-08-25T10:05:27;91.43;;;37.65;;
64487;SDS011;50864;45.050;39.014;2022-08-25T10:07:57;100.97;;;39.75;;
64487;SDS011;50864;45.050;39.014;2022-08-25T10:10:34;137.23;;;46.90;;
64487;SDS011;50864;45.050;39.014;2022-08-25T10:13:03;165.20;;;55.35;;
64487;SDS011;50864;45.050;39.014;2022-08-25T10:15:36;146.13;;;50.85;;
64487;SDS011;50864;45.050;39.014;2022-08-25T10:20:41;118.97;;;46.13;;
64487;SDS011;50864;45.050;39.014;2022-08-25T10:23:09;140.52;;;49.92;;
64487;SDS011;50864;45.050;39.014;2022-08-25T10:25:36;117.32;;;43.35;;
64487;SDS011;50864;45.050;39.014;2022-08-25T10:28:41;90.47;;;34.88;;
64487;SDS011;50864;45.050;39.014;2022-08-25T10:37:05;118.82;;;41.95;;
64487;SDS011;50864;45.050;39.014;2022-08-25T10:39:16;83.50;;;33.58;;
64487;SDS011;50864;45.050;39.014;2022-08-25T10:41:53;79.70;;;34.40;;
64487;SDS011;50864;45.050;39.014;2022-08-25T10:44:37;84.22;;;34.10;;
64487;SDS011;50864;45.050;39.014;2022-08-25T10:52:29;105.60;;;38.40;;
64487;SDS011;50864;45.050;39.014;2022-08-25T10:55:00;87.72;;;34.70;;
64487;SDS011;50864;45.050;39.014;2022-08-25T10:57:38;103.85;;;36.05;;
64487;SDS011;50864;45.050;39.014;2022-08-25T11:00:08;111.30;;;40.38;;
64487;SDS011;50864;45.050;39.014;2022-08-25T11:07:40;55.58;;;28.30;;
64487;SDS011;50864;45.050;39.014;2022-08-25T11:10:09;44.17;;;21.85;;
64487;SDS011;50864;45.050;39.014;2022-08-25T11:12:43;48.22;;;20.37;;
64487;SDS011;50864;45.050;39.014;2022-08-25T11:20:22;84.80;;;31.67;;
64487;SDS011;50864;45.050;39.014;2022-08-25T11:23:00;76.35;;;31.23;;
64487;SDS011;50864;45.050;39.014;2022-08-25T11:25:36;79.30;;;29.23;;
64487;SDS011;50864;45.050;39.014;2022-08-25T11:30:31;83.65;;;35.08;;
64487;SDS011;50864;45.050;39.014;2022-08-25T11:32:57;72.53;;;29.55;;
64487;SDS011;50864;45.050;39.014;2022-08-25T11:35:44;108.90;;;39.15;;
64487;SDS011;50864;45.050;39.014;2022-08-25T11:56:54;102.10;;;35.78;;
64487;SDS011;50864;45.050;39.014;2022-08-25T12:02:05;68.78;;;30.12;;
64487;SDS011;50864;45.050;39.014;2022-08-25T12:04:34;61.55;;;26.15;;
64487;SDS011;50864;45.050;39.014;2022-08-25T12:14:54;46.03;;;24.75;;
64487;SDS011;50864;45.050;39.014;2022-08-25T12:17:24;53.83;;;25.00;;
64487;SDS011;50864;45.050;39.014;2022-08-25T12:19:54;57.95;;;25.98;;
64487;SDS011;50864;45.050;39.014;2022-08-25T12:25:02;31.58;;;14.07;;
64487;SDS011;50864;45.050;39.014;2022-08-25T12:27:39;36.38;;;21.20;;
64487;SDS011;50864;45.050;39.014;2022-08-25T12:32:48;52.10;;;23.52;;
64487;SDS011;50864;45.050;39.014;2022-08-25T12:40:28;47.38;;;22.40;;
64487;SDS011;50864;45.050;39.014;2022-08-25T12:45:47;44.20;;;22.00;;
64487;SDS011;50864;45.050;39.014;2022-08-25T12:51:37;54.22;;;22.35;;
64487;SDS011;50864;45.050;39.014;2022-08-25T12:53:58;39.15;;;19.73;;
64487;SDS011;50864;45.050;39.014;2022-08-25T12:56:36;40.22;;;17.17;;
64487;SDS011;50864;45.050;39.014;2022-08-25T12:59:15;40.80;;;17.45;;
64487;SDS011;50864;45.050;39.014;2022-08-25T13:04:26;41.05;;;17.08;;
64487;SDS011;50864;45.050;39.014;2022-08-25T13:12:18;44.47;;;21.08;;
64487;SDS011;50864;45.050;39.014;2022-08-25T13:14:54;53.35;;;20.62;;
64487;SDS011;50864;45.050;39.014;2022-08-25T13:17:24;57.53;;;22.60;;
64487;SDS011;50864;45.050;39.014;2022-08-25T13:19:50;60.50;;;22.60;;
64487;SDS011;50864;45.050;39.014;2022-08-25T13:22:16;66.93;;;23.00;;
64487;SDS011;50864;45.050;39.014;2022-08-25T13:24:43;71.12;;;27.55;;
64487;SDS011;50864;45.050;39.014;2022-08-25T13:27:17;39.63;;;17.30;;
64487;SDS011;50864;45.050;39.014;2022-08-25T13:29:54;48.30;;;20.08;;
64487;SDS011;50864;45.050;39.014;2022-08-25T13:32:28;73.32;;;25.35;;
64487;SDS011;50864;45.050;39.014;2022-08-25T13:35:16;81.90;;;26.70;;
64487;SDS011;50864;45.050;39.014;2022-08-25T13:37:40;66.40;;;26.17;;
64487;SDS011;50864;45.050;39.014;2022-08-25T13:40:12;69.72;;;27.05;;
64487;SDS011;50864;45.050;39.014;2022-08-25T13:42:41;62.58;;;27.70;;
64487;SDS011;50864;45.050;39.014;2022-08-25T13:45:08;83.62;;;25.75;;
64487;SDS011;50864;45.050;39.014;2022-08-25T13:47:37;54.08;;;26.05;;
64487;SDS011;50864;45.050;39.014;2022-08-25T13:52:46;67.32;;;29.15;;
64487;SDS011;50864;45.050;39.014;2022-08-25T13:55:18;78.40;;;28.95;;
64487;SDS011;50864;45.050;39.014;2022-08-25T13:57:45;72.03;;;30.08;;
64487;SDS011;50864;45.050;39.014;2022-08-25T14:00:10;68.80;;;29.58;;
64487;SDS011;50864;45.050;39.014;2022-08-25T14:02:42;72.28;;;30.85;;
64487;SDS011;50864;45.050;39.014;2022-08-25T14:05:08;94.10;;;32.80;;
64487;SDS011;50864;45.050;39.014;2022-08-25T14:07:35;88.70;;;32.95;;
64487;SDS011;50864;45.050;39.014;2022-08-25T14:10:06;66.95;;;23.58;;
64487;SDS011;50864;45.050;39.014;2022-08-25T14:15:07;120.47;;;38.17;;
64487;SDS011;50864;45.050;39.014;2022-08-25T14:17:33;108.82;;;34.60;;
64487;SDS011;50864;45.050;39.014;2022-08-25T14:20:00;80.40;;;25.15;;
64487;SDS011;50864;45.050;39.014;2022-08-25T14:22:26;86.97;;;26.23;;
64487;SDS011;50864;45.050;39.014;2022-08-25T14:24:52;85.07;;;26.73;;
64487;SDS011;50864;45.050;39.014;2022-08-25T14:27:18;90.68;;;27.73;;
64487;SDS011;50864;45.050;39.014;2022-08-25T14:29:45;88.85;;;29.33;;
64487;SDS011;50864;45.050;39.014;2022-08-25T14:32:10;78.25;;;26.58;;
64487;SDS011;50864;45.050;39.014;2022-08-25T14:34:37;79.35;;;25.08;;
64487;SDS011;50864;45.050;39.014;2022-08-25T14:37:08;69.65;;;23.87;;
64487;SDS011;50864;45.050;39.014;2022-08-25T14:39:36;61.10;;;22.08;;
64487;SDS011;50864;45.050;39.014;2022-08-25T14:42:02;75.50;;;22.75;;
64487;SDS011;50864;45.050;39.014;2022-08-25T14:44:28;93.90;;;27.50;;
64487;SDS011;50864;45.050;39.014;2022-08-25T14:46:54;52.88;;;18.08;;
64487;SDS011;50864;45.050;39.014;2022-08-25T14:49:23;70.00;;;23.27;;
64487;SDS011;50864;45.050;39.014;2022-08-25T14:51:50;72.43;;;22.30;;
64487;SDS011;50864;45.050;39.014;2022-08-25T14:54:16;69.68;;;25.35;;
64487;SDS011;50864;45.050;39.014;2022-08-25T14:56:43;102.45;;;33.88;;
64487;SDS011;50864;45.050;39.014;2022-08-25T14:59:10;80.03;;;26.80;;
64487;SDS011;50864;45.050;39.014;2022-08-25T15:01:36;90.50;;;29.55;;
64487;SDS011;50864;45.050;39.014;2022-08-25T15:04:04;103.85;;;34.38;;
64487;SDS011;50864;45.050;39.014;2022-08-25T15:06:31;98.07;;;34.30;;
64487;SDS011;50864;45.050;39.014;2022-08-25T15:08:57;97.10;;;33.22;;
64487;SDS011;50864;45.050;39.014;2022-08-25T15:11:33;96.37;;;30.35;;
64487;SDS011;50864;45.050;39.014;2022-08-25T15:13:59;120.62;;;38.88;;
64487;SDS011;50864;45.050;39.014;2022-08-25T15:16:27;95.60;;;32.90;;
64487;SDS011;50864;45.050;39.014;2022-08-25T15:18:54;102.28;;;34.00;;
64487;SDS011;50864;45.050;39.014;2022-08-25T15:21:21;135.27;;;40.45;;
64487;SDS011;50864;45.050;39.014;2022-08-25T15:23:46;116.55;;;34.78;;
64487;SDS011;50864;45.050;39.014;2022-08-25T15:26:13;121.40;;;36.00;;
64487;SDS011;50864;45.050;39.014;2022-08-25T15:28:41;102.38;;;34.00;;
64487;SDS011;50864;45.050;39.014;2022-08-25T15:31:07;85.57;;;27.90;;
64487;SDS011;50864;45.050;39.014;2022-08-25T15:33:33;86.63;;;31.12;;
64487;SDS011;50864;45.050;39.014;2022-08-25T15:35:59;73.97;;;27.45;;
64487;SDS011;50864;45.050;39.014;2022-08-25T15:38:25;80.03;;;27.15;;
64487;SDS011;50864;45.050;39.014;2022-08-25T15:40:51;64.05;;;24.95;;
64487;SDS011;50864;45.050;39.014;2022-08-25T15:43:17;67.53;;;22.52;;
64487;SDS011;50864;45.050;39.014;2022-08-25T15:45:42;78.12;;;28.10;;
64487;SDS011;50864;45.050;39.014;2022-08-25T15:48:09;63.13;;;21.80;;
64487;SDS011;50864;45.050;39.014;2022-08-25T15:50:34;84.75;;;27.40;;
64487;SDS011;50864;45.050;39.014;2022-08-25T15:53:00;71.07;;;25.37;;
64487;SDS011;50864;45.050;39.014;2022-08-25T15:55:27;71.82;;;21.75;;
64487;SDS011;50864;45.050;39.014;2022-08-25T15:57:52;95.30;;;29.95;;